sensor_id;sensor_type;location;lat;lon;timestamp;P1;durP1;ratioP1;P2;durP2;ratioP2
9698;SDS011;10089;47.876;8.346;2023-08-21T00:01:20;9.18;;;7.22;;
9698;SDS011;10089;47.876;8.346;2023-08-21T00:03:46;8.00;;;7.10;;
9698;SDS011;10089;47.876;8.346;2023-08-21T00:06:11;9.25;;;7.10;;
9698;SDS011;10089;47.876;8.346;2023-08-21T00:08:37;7.82;;;7.00;;
9698;SDS011;10089;47.876;8.346;2023-08-21T00:11:02;9.50;;;7.82;;
9698;SDS011;10089;47.876;8.346;2023-08-21T00:13:28;7.82;;;6.80;;
9698;SDS011;10089;47.876;8.346;2023-08-21T00:15:54;7.63;;;6.95;;
9698;SDS011;10089;47.876;8.346;2023-08-21T00:18:20;8.77;;;7.22;;
9698;SDS011;10089;47.876;8.346;2023-08-21T00:20:46;8.70;;;6.90;;
9698;SDS011;10089;47.876;8.346;2023-08-21T00:23:12;12.70;;;6.88;;
9698;SDS011;10089;47.876;8.346;2023-08-21T00:25:37;9.45;;;6.20;;
9698;SDS011;10089;47.876;8.346;2023-08-21T00:28:03;16.65;;;7.38;;
9698;SDS011;10089;47.876;8.346;2023-08-21T00:30:29;10.43;;;7.00;;
9698;SDS011;10089;47.876;8.346;2023-08-21T00:32:55;8.55;;;7.22;;
9698;SDS011;10089;47.876;8.346;2023-08-21T00:35:20;7.47;;;6.70;;
9698;SDS011;10089;47.876;8.346;2023-08-21T00:37:46;7.75;;;6.72;;
9698;SDS011;10089;47.876;8.346;2023-08-21T00:40:12;10.68;;;6.95;;
9698;SDS011;10089;47.876;8.346;2023-08-21T00:42:38;8.10;;;7.07;;
9698;SDS011;10089;47.876;8.346;2023-08-21T00:45:03;9.98;;;7.20;;
9698;SDS011;10089;47.876;8.346;2023-08-21T00:47:30;9.93;;;7.40;;
9698;SDS011;10089;47.876;8.346;2023-08-21T00:49:55;10.50;;;7.03;;
9698;SDS011;10089;47.876;8.346;2023-08-21T00:52:21;8.52;;;7.28;;
9698;SDS011;10089;47.876;8.346;2023-08-21T00:54:47;7.55;;;6.63;;
9698;SDS011;10089;47.876;8.346;2023-08-21T00:57:15;9.75;;;6.70;;
9698;SDS011;10089;47.876;8.346;2023-08-21T00:59:40;7.72;;;6.82;;
9698;SDS011;10089;47.876;8.346;2023-08-21T01:02:06;9.18;;;6.97;;
9698;SDS011;10089;47.876;8.346;2023-08-21T01:04:32;12.48;;;7.28;;
9698;SDS011;10089;47.876;8.346;2023-08-21T01:06:57;10.27;;;7.15;;
9698;SDS011;10089;47.876;8.346;2023-08-21T01:09:31;8.68;;;7.75;;
9698;SDS011;10089;47.876;8.346;2023-08-21T01:14:59;7.70;;;6.78;;
9698;SDS011;10089;47.876;8.346;2023-08-21T01:17:29;8.07;;;6.57;;
9698;SDS011;10089;47.876;8.346;2023-08-21T01:19:55;14.43;;;7.22;;
9698;SDS011;10089;47.876;8.346;2023-08-21T01:22:26;9.40;;;6.88;;
9698;SDS011;10089;47.876;8.346;2023-08-21T01:24:53;10.07;;;6.78;;
9698;SDS011;10089;47.876;8.346;2023-08-21T01:27:19;10.18;;;6.90;;
9698;SDS011;10089;47.876;8.346;2023-08-21T01:29:46;7.75;;;6.90;;
9698;SDS011;10089;47.876;8.346;2023-08-21T01:32:21;7.43;;;6.53;;
9698;SDS011;10089;47.876;8.346;2023-08-21T01:34:54;9.77;;;6.55;;
9698;SDS011;10089;47.876;8.346;2023-08-21T01:37:21;13.00;;;6.93;;
9698;SDS011;10089;47.876;8.346;2023-08-21T01:39:48;8.10;;;6.95;;
9698;SDS011;10089;47.876;8.346;2023-08-21T01:42:14;9.10;;;6.70;;
9698;SDS011;10089;47.876;8.346;2023-08-21T01:44:39;12.63;;;7.45;;
9698;SDS011;10089;47.876;8.346;2023-08-21T01:47:05;7.78;;;6.97;;
9698;SDS011;10089;47.876;8.346;2023-08-21T01:49:31;7.80;;;6.57;;
9698;SDS011;10089;47.876;8.346;2023-08-21T01:51:56;7.65;;;6.47;;
9698;SDS011;10089;47.876;8.346;2023-08-21T01:54:22;9.00;;;6.72;;
9698;SDS011;10089;47.876;8.346;2023-08-21T01:56:48;9.88;;;6.80;;
9698;SDS011;10089;47.876;8.346;2023-08-21T01:59:15;10.25;;;7.18;;
9698;SDS011;10089;47.876;8.346;2023-08-21T02:01:42;10.00;;;6.97;;
9698;SDS011;10089;47.876;8.346;2023-08-21T02:04:07;11.30;;;7.15;;
9698;SDS011;10089;47.876;8.346;2023-08-21T02:06:33;9.48;;;6.65;;
9698;SDS011;10089;47.876;8.346;2023-08-21T02:08:58;8.10;;;6.82;;
9698;SDS011;10089;47.876;8.346;2023-08-21T02:11:24;12.63;;;6.88;;
9698;SDS011;10089;47.876;8.346;2023-08-21T02:13:50;7.75;;;6.40;;
9698;SDS011;10089;47.876;8.346;2023-08-21T02:16:15;7.63;;;6.47;;
9698;SDS011;10089;47.876;8.346;2023-08-21T02:18:41;9.52;;;6.80;;
9698;SDS011;10089;47.876;8.346;2023-08-21T02:21:07;12.32;;;6.57;;
9698;SDS011;10089;47.876;8.346;2023-08-21T02:23:32;11.60;;;6.93;;
9698;SDS011;10089;47.876;8.346;2023-08-21T02:25:58;7.55;;;6.85;;
9698;SDS011;10089;47.876;8.346;2023-08-21T02:28:24;11.82;;;6.55;;
9698;SDS011;10089;47.876;8.346;2023-08-21T02:30:49;20.90;;;13.38;;
9698;SDS011;10089;47.876;8.346;2023-08-21T02:33:15;20.65;;;14.15;;
9698;SDS011;10089;47.876;8.346;2023-08-21T02:35:41;25.30;;;14.40;;
9698;SDS011;10089;47.876;8.346;2023-08-21T02:38:06;16.20;;;10.27;;
9698;SDS011;10089;47.876;8.346;2023-08-21T02:40:32;16.02;;;10.48;;
9698;SDS011;10089;47.876;8.346;2023-08-21T02:42:57;10.60;;;9.13;;
9698;SDS011;10089;47.876;8.346;2023-08-21T02:45:23;13.20;;;9.35;;
9698;SDS011;10089;47.876;8.346;2023-08-21T02:47:49;10.52;;;8.00;;
9698;SDS011;10089;47.876;8.346;2023-08-21T02:50:14;11.50;;;7.45;;
9698;SDS011;10089;47.876;8.346;2023-08-21T02:52:40;9.30;;;7.18;;
9698;SDS011;10089;47.876;8.346;2023-08-21T02:55:06;8.55;;;7.30;;
9698;SDS011;10089;47.876;8.346;2023-08-21T02:57:32;12.18;;;7.80;;
9698;SDS011;10089;47.876;8.346;2023-08-21T02:59:57;7.82;;;7.00;;
9698;SDS011;10089;47.876;8.346;2023-08-21T03:02:23;10.45;;;6.32;;
9698;SDS011;10089;47.876;8.346;2023-08-21T03:04:49;12.50;;;7.47;;
9698;SDS011;10089;47.876;8.346;2023-08-21T03:07:15;9.70;;;6.75;;
9698;SDS011;10089;47.876;8.346;2023-08-21T03:09:41;8.48;;;6.85;;
9698;SDS011;10089;47.876;8.346;2023-08-21T03:12:07;8.25;;;6.93;;
9698;SDS011;10089;47.876;8.346;2023-08-21T03:14:33;8.52;;;6.80;;
9698;SDS011;10089;47.876;8.346;2023-08-21T03:16:59;8.18;;;6.50;;
9698;SDS011;10089;47.876;8.346;2023-08-21T03:19:25;9.23;;;7.28;;
9698;SDS011;10089;47.876;8.346;2023-08-21T03:21:51;8.65;;;7.72;;
9698;SDS011;10089;47.876;8.346;2023-08-21T03:24:17;8.93;;;6.82;;
9698;SDS011;10089;47.876;8.346;2023-08-21T03:26:43;8.63;;;6.70;;
9698;SDS011;10089;47.876;8.346;2023-08-21T03:29:09;8.23;;;6.75;;
9698;SDS011;10089;47.876;8.346;2023-08-21T03:31:34;7.88;;;7.07;;
9698;SDS011;10089;47.876;8.346;2023-08-21T03:34:00;11.13;;;7.32;;
9698;SDS011;10089;47.876;8.346;2023-08-21T03:36:26;11.48;;;6.82;;
9698;SDS011;10089;47.876;8.346;2023-08-21T03:39:01;9.57;;;7.20;;
9698;SDS011;10089;47.876;8.346;2023-08-21T03:41:29;10.70;;;7.22;;
9698;SDS011;10089;47.876;8.346;2023-08-21T03:43:54;8.63;;;6.30;;
9698;SDS011;10089;47.876;8.346;2023-08-21T03:46:20;11.30;;;7.05;;
9698;SDS011;10089;47.876;8.346;2023-08-21T03:48:46;7.13;;;6.43;;
9698;SDS011;10089;47.876;8.346;2023-08-21T03:51:11;8.65;;;6.88;;
9698;SDS011;10089;47.876;8.346;2023-08-21T03:53:37;7.65;;;6.85;;
9698;SDS011;10089;47.876;8.346;2023-08-21T03:56:03;7.85;;;6.97;;
9698;SDS011;10089;47.876;8.346;2023-08-21T03:58:29;8.82;;;7.10;;
9698;SDS011;10089;47.876;8.346;2023-08-21T04:00:54;8.75;;;6.68;;
9698;SDS011;10089;47.876;8.346;2023-08-21T04:03:20;8.30;;;6.85;;
9698;SDS011;10089;47.876;8.346;2023-08-21T04:05:46;7.35;;;6.53;;
9698;SDS011;10089;47.876;8.346;2023-08-21T04:08:12;9.15;;;6.82;;
9698;SDS011;10089;47.876;8.346;2023-08-21T04:10:38;7.80;;;6.72;;
9698;SDS011;10089;47.876;8.346;2023-08-21T04:13:04;9.18;;;7.05;;
9698;SDS011;10089;47.876;8.346;2023-08-21T04:15:30;9.23;;;6.63;;
9698;SDS011;10089;47.876;8.346;2023-08-21T04:17:56;7.88;;;6.75;;
9698;SDS011;10089;47.876;8.346;2023-08-21T04:20:22;7.07;;;6.38;;
9698;SDS011;10089;47.876;8.346;2023-08-21T04:22:48;11.55;;;7.30;;
9698;SDS011;10089;47.876;8.346;2023-08-21T04:25:14;10.35;;;6.53;;
9698;SDS011;10089;47.876;8.346;2023-08-21T04:27:40;7.85;;;6.95;;
9698;SDS011;10089;47.876;8.346;2023-08-21T04:30:07;8.30;;;6.97;;
9698;SDS011;10089;47.876;8.346;2023-08-21T04:32:33;10.93;;;6.90;;
9698;SDS011;10089;47.876;8.346;2023-08-21T04:34:58;7.40;;;6.38;;
9698;SDS011;10089;47.876;8.346;2023-08-21T04:37:24;7.63;;;6.40;;
9698;SDS011;10089;47.876;8.346;2023-08-21T04:39:53;9.43;;;7.22;;
9698;SDS011;10089;47.876;8.346;2023-08-21T04:42:19;11.07;;;6.50;;
9698;SDS011;10089;47.876;8.346;2023-08-21T04:44:46;9.30;;;6.70;;
9698;SDS011;10089;47.876;8.346;2023-08-21T04:47:18;9.73;;;6.70;;
9698;SDS011;10089;47.876;8.346;2023-08-21T04:49:45;9.45;;;6.65;;
9698;SDS011;10089;47.876;8.346;2023-08-21T04:52:11;11.68;;;7.55;;
9698;SDS011;10089;47.876;8.346;2023-08-21T04:54:37;8.57;;;6.95;;
9698;SDS011;10089;47.876;8.346;2023-08-21T04:57:02;10.00;;;6.45;;
9698;SDS011;10089;47.876;8.346;2023-08-21T04:59:28;8.43;;;6.80;;
9698;SDS011;10089;47.876;8.346;2023-08-21T05:01:53;9.77;;;6.72;;
9698;SDS011;10089;47.876;8.346;2023-08-21T05:04:19;10.27;;;6.75;;
9698;SDS011;10089;47.876;8.346;2023-08-21T05:06:45;12.10;;;7.22;;
9698;SDS011;10089;47.876;8.346;2023-08-21T05:09:10;6.70;;;6.10;;
9698;SDS011;10089;47.876;8.346;2023-08-21T05:11:36;8.60;;;6.85;;
9698;SDS011;10089;47.876;8.346;2023-08-21T05:14:01;7.40;;;6.57;;
9698;SDS011;10089;47.876;8.346;2023-08-21T05:16:27;11.65;;;6.70;;
9698;SDS011;10089;47.876;8.346;2023-08-21T05:18:53;9.07;;;6.93;;
9698;SDS011;10089;47.876;8.346;2023-08-21T05:21:19;10.88;;;7.47;;
9698;SDS011;10089;47.876;8.346;2023-08-21T05:26:14;8.88;;;7.00;;
9698;SDS011;10089;47.876;8.346;2023-08-21T05:28:40;7.07;;;6.38;;
9698;SDS011;10089;47.876;8.346;2023-08-21T05:31:05;11.68;;;7.47;;
9698;SDS011;10089;47.876;8.346;2023-08-21T05:33:31;10.25;;;6.25;;
9698;SDS011;10089;47.876;8.346;2023-08-21T05:35:57;8.20;;;7.05;;
9698;SDS011;10089;47.876;8.346;2023-08-21T05:38:22;12.30;;;7.22;;
9698;SDS011;10089;47.876;8.346;2023-08-21T05:40:48;8.93;;;7.03;;
9698;SDS011;10089;47.876;8.346;2023-08-21T05:43:15;7.45;;;6.65;;
9698;SDS011;10089;47.876;8.346;2023-08-21T05:45:41;10.43;;;6.90;;
9698;SDS011;10089;47.876;8.346;2023-08-21T05:48:07;8.23;;;6.32;;
9698;SDS011;10089;47.876;8.346;2023-08-21T05:50:33;8.25;;;6.57;;
9698;SDS011;10089;47.876;8.346;2023-08-21T05:53:05;7.75;;;6.47;;
9698;SDS011;10089;47.876;8.346;2023-08-21T05:55:31;11.02;;;7.82;;
9698;SDS011;10089;47.876;8.346;2023-08-21T05:57:57;13.85;;;8.30;;
9698;SDS011;10089;47.876;8.346;2023-08-21T06:00:23;13.25;;;8.27;;
9698;SDS011;10089;47.876;8.346;2023-08-21T06:02:48;12.68;;;7.35;;
9698;SDS011;10089;47.876;8.346;2023-08-21T06:05:14;12.50;;;7.80;;
9698;SDS011;10089;47.876;8.346;2023-08-21T06:07:40;8.65;;;6.47;;
9698;SDS011;10089;47.876;8.346;2023-08-21T06:10:09;10.18;;;6.72;;
9698;SDS011;10089;47.876;8.346;2023-08-21T06:12:37;7.22;;;6.25;;
9698;SDS011;10089;47.876;8.346;2023-08-21T06:15:05;8.15;;;6.35;;
9698;SDS011;10089;47.876;8.346;2023-08-21T06:17:34;9.05;;;6.35;;
9698;SDS011;10089;47.876;8.346;2023-08-21T06:20:01;7.32;;;6.30;;
9698;SDS011;10089;47.876;8.346;2023-08-21T06:22:28;8.68;;;6.05;;
9698;SDS011;10089;47.876;8.346;2023-08-21T06:24:53;9.55;;;5.57;;
9698;SDS011;10089;47.876;8.346;2023-08-21T06:27:19;8.60;;;5.93;;
9698;SDS011;10089;47.876;8.346;2023-08-21T06:29:45;9.02;;;5.70;;
9698;SDS011;10089;47.876;8.346;2023-08-21T06:32:10;7.57;;;5.55;;
9698;SDS011;10089;47.876;8.346;2023-08-21T06:34:36;9.13;;;5.28;;
9698;SDS011;10089;47.876;8.346;2023-08-21T06:37:02;7.53;;;5.68;;
9698;SDS011;10089;47.876;8.346;2023-08-21T06:39:28;6.32;;;5.68;;
9698;SDS011;10089;47.876;8.346;2023-08-21T06:41:54;10.80;;;5.32;;
9698;SDS011;10089;47.876;8.346;2023-08-21T06:44:19;8.13;;;5.35;;
9698;SDS011;10089;47.876;8.346;2023-08-21T06:46:45;8.40;;;5.72;;
9698;SDS011;10089;47.876;8.346;2023-08-21T06:49:11;9.30;;;5.25;;
9698;SDS011;10089;47.876;8.346;2023-08-21T06:51:36;8.45;;;5.80;;
9698;SDS011;10089;47.876;8.346;2023-08-21T06:54:02;13.05;;;6.10;;
9698;SDS011;10089;47.876;8.346;2023-08-21T06:56:28;10.20;;;6.25;;
9698;SDS011;10089;47.876;8.346;2023-08-21T06:58:54;8.07;;;5.85;;
9698;SDS011;10089;47.876;8.346;2023-08-21T07:01:20;8.38;;;6.75;;
9698;SDS011;10089;47.876;8.346;2023-08-21T07:03:46;9.82;;;6.28;;
9698;SDS011;10089;47.876;8.346;2023-08-21T07:06:12;7.93;;;6.75;;
9698;SDS011;10089;47.876;8.346;2023-08-21T07:08:38;8.98;;;6.15;;
9698;SDS011;10089;47.876;8.346;2023-08-21T07:11:05;10.23;;;6.53;;
9698;SDS011;10089;47.876;8.346;2023-08-21T07:13:33;14.27;;;6.32;;
9698;SDS011;10089;47.876;8.346;2023-08-21T07:15:59;9.73;;;6.40;;
9698;SDS011;10089;47.876;8.346;2023-08-21T07:18:28;6.35;;;5.15;;
9698;SDS011;10089;47.876;8.346;2023-08-21T07:20:54;7.60;;;5.30;;
9698;SDS011;10089;47.876;8.346;2023-08-21T07:23:20;6.72;;;5.40;;
9698;SDS011;10089;47.876;8.346;2023-08-21T07:25:46;10.00;;;5.80;;
9698;SDS011;10089;47.876;8.346;2023-08-21T07:28:11;8.82;;;5.38;;
9698;SDS011;10089;47.876;8.346;2023-08-21T07:30:37;6.95;;;5.38;;
9698;SDS011;10089;47.876;8.346;2023-08-21T07:33:04;6.28;;;5.68;;
9698;SDS011;10089;47.876;8.346;2023-08-21T07:35:30;6.22;;;5.20;;
9698;SDS011;10089;47.876;8.346;2023-08-21T07:37:56;5.78;;;5.18;;
9698;SDS011;10089;47.876;8.346;2023-08-21T07:40:22;10.68;;;6.20;;
9698;SDS011;10089;47.876;8.346;2023-08-21T07:42:47;5.78;;;5.20;;
9698;SDS011;10089;47.876;8.346;2023-08-21T07:45:13;9.43;;;5.57;;
9698;SDS011;10089;47.876;8.346;2023-08-21T07:47:39;8.27;;;5.40;;
9698;SDS011;10089;47.876;8.346;2023-08-21T07:50:05;6.85;;;5.68;;
9698;SDS011;10089;47.876;8.346;2023-08-21T07:52:32;7.88;;;5.38;;
9698;SDS011;10089;47.876;8.346;2023-08-21T07:54:58;11.38;;;5.40;;
9698;SDS011;10089;47.876;8.346;2023-08-21T07:57:26;6.45;;;5.85;;
9698;SDS011;10089;47.876;8.346;2023-08-21T07:59:53;6.63;;;5.07;;
9698;SDS011;10089;47.876;8.346;2023-08-21T08:02:19;12.82;;;5.60;;
9698;SDS011;10089;47.876;8.346;2023-08-21T08:04:44;7.85;;;5.57;;
9698;SDS011;10089;47.876;8.346;2023-08-21T08:07:10;5.68;;;5.07;;
9698;SDS011;10089;47.876;8.346;2023-08-21T08:09:36;6.80;;;4.90;;
9698;SDS011;10089;47.876;8.346;2023-08-21T08:12:02;12.23;;;5.25;;
9698;SDS011;10089;47.876;8.346;2023-08-21T08:14:28;10.02;;;4.93;;
9698;SDS011;10089;47.876;8.346;2023-08-21T08:16:54;8.98;;;5.20;;
9698;SDS011;10089;47.876;8.346;2023-08-21T08:19:19;6.53;;;5.25;;
9698;SDS011;10089;47.876;8.346;2023-08-21T08:21:45;8.50;;;5.40;;
9698;SDS011;10089;47.876;8.346;2023-08-21T08:24:11;9.48;;;5.47;;
9698;SDS011;10089;47.876;8.346;2023-08-21T08:26:37;6.40;;;4.95;;
9698;SDS011;10089;47.876;8.346;2023-08-21T08:29:03;6.60;;;5.68;;
9698;SDS011;10089;47.876;8.346;2023-08-21T08:31:30;6.88;;;4.97;;
9698;SDS011;10089;47.876;8.346;2023-08-21T08:33:56;8.95;;;6.25;;
9698;SDS011;10089;47.876;8.346;2023-08-21T08:36:22;6.25;;;5.07;;
9698;SDS011;10089;47.876;8.346;2023-08-21T08:38:47;8.80;;;5.28;;
9698;SDS011;10089;47.876;8.346;2023-08-21T08:41:17;5.47;;;4.85;;
9698;SDS011;10089;47.876;8.346;2023-08-21T08:43:50;6.47;;;4.97;;
9698;SDS011;10089;47.876;8.346;2023-08-21T08:46:18;11.55;;;5.20;;
9698;SDS011;10089;47.876;8.346;2023-08-21T08:54:05;7.28;;;5.18;;
9698;SDS011;10089;47.876;8.346;2023-08-21T08:56:32;7.90;;;5.32;;
9698;SDS011;10089;47.876;8.346;2023-08-21T08:58:58;8.52;;;5.95;;
9698;SDS011;10089;47.876;8.346;2023-08-21T09:01:24;7.80;;;5.18;;
9698;SDS011;10089;47.876;8.346;2023-08-21T09:03:49;5.45;;;4.95;;
9698;SDS011;10089;47.876;8.346;2023-08-21T09:06:16;7.75;;;5.22;;
9698;SDS011;10089;47.876;8.346;2023-08-21T09:09:00;8.35;;;5.60;;
9698;SDS011;10089;47.876;8.346;2023-08-21T09:11:35;10.65;;;5.18;;
9698;SDS011;10089;47.876;8.346;2023-08-21T09:14:01;9.05;;;5.35;;
9698;SDS011;10089;47.876;8.346;2023-08-21T09:16:27;10.27;;;5.15;;
9698;SDS011;10089;47.876;8.346;2023-08-21T09:18:56;10.35;;;5.20;;
9698;SDS011;10089;47.876;8.346;2023-08-21T09:21:22;7.20;;;5.70;;
9698;SDS011;10089;47.876;8.346;2023-08-21T09:23:51;6.10;;;5.07;;
9698;SDS011;10089;47.876;8.346;2023-08-21T09:26:23;7.18;;;5.22;;
9698;SDS011;10089;47.876;8.346;2023-08-21T09:28:50;8.07;;;5.18;;
9698;SDS011;10089;47.876;8.346;2023-08-21T09:31:24;6.97;;;4.85;;
9698;SDS011;10089;47.876;8.346;2023-08-21T09:33:59;7.55;;;4.65;;
9698;SDS011;10089;47.876;8.346;2023-08-21T09:36:26;6.43;;;5.80;;
9698;SDS011;10089;47.876;8.346;2023-08-21T09:38:55;10.07;;;4.95;;
9698;SDS011;10089;47.876;8.346;2023-08-21T09:41:21;6.82;;;5.05;;
9698;SDS011;10089;47.876;8.346;2023-08-21T09:43:47;7.00;;;5.15;;
9698;SDS011;10089;47.876;8.346;2023-08-21T09:46:14;6.97;;;5.28;;
9698;SDS011;10089;47.876;8.346;2023-08-21T09:48:44;6.97;;;4.88;;
9698;SDS011;10089;47.876;8.346;2023-08-21T09:51:11;7.75;;;5.38;;
9698;SDS011;10089;47.876;8.346;2023-08-21T09:53:40;6.82;;;5.60;;
9698;SDS011;10089;47.876;8.346;2023-08-21T10:09:04;9.32;;;4.82;;
9698;SDS011;10089;47.876;8.346;2023-08-21T10:11:29;6.93;;;5.05;;
9698;SDS011;10089;47.876;8.346;2023-08-21T10:13:56;12.32;;;4.95;;
9698;SDS011;10089;47.876;8.346;2023-08-21T10:16:23;6.80;;;5.30;;
9698;SDS011;10089;47.876;8.346;2023-08-21T10:18:48;8.25;;;5.63;;
9698;SDS011;10089;47.876;8.346;2023-08-21T10:21:15;7.07;;;5.45;;
9698;SDS011;10089;47.876;8.346;2023-08-21T10:23:42;5.68;;;4.90;;
9698;SDS011;10089;47.876;8.346;2023-08-21T10:26:14;6.95;;;5.32;;
9698;SDS011;10089;47.876;8.346;2023-08-21T10:28:53;9.70;;;5.47;;
9698;SDS011;10089;47.876;8.346;2023-08-21T10:31:30;9.00;;;5.95;;
9698;SDS011;10089;47.876;8.346;2023-08-21T10:33:56;7.80;;;5.47;;
9698;SDS011;10089;47.876;8.346;2023-08-21T10:36:39;9.07;;;5.32;;
9698;SDS011;10089;47.876;8.346;2023-08-21T10:39:15;8.18;;;4.90;;
9698;SDS011;10089;47.876;8.346;2023-08-21T10:41:52;6.80;;;4.82;;
9698;SDS011;10089;47.876;8.346;2023-08-21T10:45:05;9.00;;;5.38;;
9698;SDS011;10089;47.876;8.346;2023-08-21T10:47:18;8.05;;;5.22;;
9698;SDS011;10089;47.876;8.346;2023-08-21T10:49:55;8.10;;;4.88;;
9698;SDS011;10089;47.876;8.346;2023-08-21T10:52:25;6.65;;;5.05;;
9698;SDS011;10089;47.876;8.346;2023-08-21T10:55:18;5.13;;;4.63;;
9698;SDS011;10089;47.876;8.346;2023-08-21T10:57:48;7.60;;;5.28;;
9698;SDS011;10089;47.876;8.346;2023-08-21T11:00:20;9.93;;;4.93;;
9698;SDS011;10089;47.876;8.346;2023-08-21T11:03:06;9.52;;;5.13;;
9698;SDS011;10089;47.876;8.346;2023-08-21T11:05:35;11.23;;;6.03;;
9698;SDS011;10089;47.876;8.346;2023-08-21T11:08:00;6.50;;;5.00;;
9698;SDS011;10089;47.876;8.346;2023-08-21T11:10:28;13.65;;;5.00;;
9698;SDS011;10089;47.876;8.346;2023-08-21T11:12:56;7.85;;;4.72;;
9698;SDS011;10089;47.876;8.346;2023-08-21T11:15:26;8.00;;;5.78;;
9698;SDS011;10089;47.876;8.346;2023-08-21T11:17:53;10.43;;;5.20;;
9698;SDS011;10089;47.876;8.346;2023-08-21T11:20:20;9.95;;;5.25;;
9698;SDS011;10089;47.876;8.346;2023-08-21T11:22:46;6.32;;;5.35;;
9698;SDS011;10089;47.876;8.346;2023-08-21T11:25:12;7.55;;;4.90;;
9698;SDS011;10089;47.876;8.346;2023-08-21T11:27:39;5.43;;;4.93;;
9698;SDS011;10089;47.876;8.346;2023-08-21T11:30:05;5.88;;;5.28;;
9698;SDS011;10089;47.876;8.346;2023-08-21T11:32:31;7.45;;;5.13;;
9698;SDS011;10089;47.876;8.346;2023-08-21T11:34:57;7.22;;;5.25;;
9698;SDS011;10089;47.876;8.346;2023-08-21T11:37:28;12.85;;;6.03;;
9698;SDS011;10089;47.876;8.346;2023-08-21T11:39:55;8.13;;;5.20;;
9698;SDS011;10089;47.876;8.346;2023-08-21T11:42:33;9.38;;;5.97;;
9698;SDS011;10089;47.876;8.346;2023-08-21T11:45:00;8.35;;;5.05;;
9698;SDS011;10089;47.876;8.346;2023-08-21T11:47:55;7.88;;;5.13;;
9698;SDS011;10089;47.876;8.346;2023-08-21T11:50:35;7.15;;;5.38;;
9698;SDS011;10089;47.876;8.346;2023-08-21T11:53:03;9.07;;;5.65;;
9698;SDS011;10089;47.876;8.346;2023-08-21T11:55:30;6.10;;;5.35;;
9698;SDS011;10089;47.876;8.346;2023-08-21T11:57:56;11.70;;;5.80;;
9698;SDS011;10089;47.876;8.346;2023-08-21T12:00:29;11.07;;;5.72;;
9698;SDS011;10089;47.876;8.346;2023-08-21T12:02:58;6.75;;;5.10;;
9698;SDS011;10089;47.876;8.346;2023-08-21T12:05:26;7.03;;;5.65;;
9698;SDS011;10089;47.876;8.346;2023-08-21T12:07:53;6.88;;;5.57;;
9698;SDS011;10089;47.876;8.346;2023-08-21T12:10:26;7.05;;;5.57;;
9698;SDS011;10089;47.876;8.346;2023-08-21T12:12:58;8.48;;;5.90;;
9698;SDS011;10089;47.876;8.346;2023-08-21T12:15:23;9.30;;;5.80;;
9698;SDS011;10089;47.876;8.346;2023-08-21T12:17:49;11.38;;;5.97;;
9698;SDS011;10089;47.876;8.346;2023-08-21T12:20:17;7.05;;;5.47;;
9698;SDS011;10089;47.876;8.346;2023-08-21T12:22:43;7.95;;;5.28;;
9698;SDS011;10089;47.876;8.346;2023-08-21T12:25:09;6.00;;;5.40;;
9698;SDS011;10089;47.876;8.346;2023-08-21T12:27:35;9.20;;;5.57;;
9698;SDS011;10089;47.876;8.346;2023-08-21T12:30:01;7.85;;;5.00;;
9698;SDS011;10089;47.876;8.346;2023-08-21T12:32:27;9.07;;;5.50;;
9698;SDS011;10089;47.876;8.346;2023-08-21T12:34:53;9.13;;;5.28;;
9698;SDS011;10089;47.876;8.346;2023-08-21T12:37:19;8.95;;;5.43;;
9698;SDS011;10089;47.876;8.346;2023-08-21T12:39:45;7.97;;;4.95;;
9698;SDS011;10089;47.876;8.346;2023-08-21T12:42:11;5.43;;;4.90;;
9698;SDS011;10089;47.876;8.346;2023-08-21T12:44:36;8.30;;;5.90;;
9698;SDS011;10089;47.876;8.346;2023-08-21T12:47:02;8.13;;;5.30;;
9698;SDS011;10089;47.876;8.346;2023-08-21T12:49:28;11.43;;;5.20;;
9698;SDS011;10089;47.876;8.346;2023-08-21T12:51:53;6.82;;;5.03;;
9698;SDS011;10089;47.876;8.346;2023-08-21T12:54:20;12.15;;;5.78;;
9698;SDS011;10089;47.876;8.346;2023-08-21T12:56:46;9.05;;;5.32;;
9698;SDS011;10089;47.876;8.346;2023-08-21T12:59:12;9.70;;;5.20;;
9698;SDS011;10089;47.876;8.346;2023-08-21T13:01:38;10.25;;;4.93;;
9698;SDS011;10089;47.876;8.346;2023-08-21T13:04:04;10.65;;;5.40;;
9698;SDS011;10089;47.876;8.346;2023-08-21T13:06:30;7.40;;;5.10;;
9698;SDS011;10089;47.876;8.346;2023-08-21T13:08:55;7.13;;;5.45;;
9698;SDS011;10089;47.876;8.346;2023-08-21T13:11:21;8.68;;;5.28;;
9698;SDS011;10089;47.876;8.346;2023-08-21T13:13:47;14.30;;;5.40;;
9698;SDS011;10089;47.876;8.346;2023-08-21T13:16:13;10.20;;;5.22;;
9698;SDS011;10089;47.876;8.346;2023-08-21T13:26:23;7.20;;;5.03;;
9698;SDS011;10089;47.876;8.346;2023-08-21T13:28:50;7.43;;;5.07;;
9698;SDS011;10089;47.876;8.346;2023-08-21T13:31:16;7.47;;;5.03;;
9698;SDS011;10089;47.876;8.346;2023-08-21T13:33:49;8.57;;;4.95;;
9698;SDS011;10089;47.876;8.346;2023-08-21T13:36:15;6.25;;;5.25;;
9698;SDS011;10089;47.876;8.346;2023-08-21T13:38:42;9.50;;;5.15;;
9698;SDS011;10089;47.876;8.346;2023-08-21T13:41:07;9.75;;;5.60;;
9698;SDS011;10089;47.876;8.346;2023-08-21T13:43:34;6.13;;;5.10;;
9698;SDS011;10089;47.876;8.346;2023-08-21T13:46:00;7.20;;;5.60;;
9698;SDS011;10089;47.876;8.346;2023-08-21T13:48:29;6.82;;;5.13;;
9698;SDS011;10089;47.876;8.346;2023-08-21T13:50:55;7.68;;;4.95;;
9698;SDS011;10089;47.876;8.346;2023-08-21T13:53:21;10.82;;;5.07;;
9698;SDS011;10089;47.876;8.346;2023-08-21T13:55:47;6.32;;;5.05;;
9698;SDS011;10089;47.876;8.346;2023-08-21T13:58:13;7.10;;;4.93;;
9698;SDS011;10089;47.876;8.346;2023-08-21T14:00:38;6.43;;;5.10;;
9698;SDS011;10089;47.876;8.346;2023-08-21T14:03:04;10.32;;;5.32;;
9698;SDS011;10089;47.876;8.346;2023-08-21T14:05:30;7.25;;;5.25;;
9698;SDS011;10089;47.876;8.346;2023-08-21T14:07:56;6.50;;;4.90;;
9698;SDS011;10089;47.876;8.346;2023-08-21T14:10:22;13.05;;;5.57;;
9698;SDS011;10089;47.876;8.346;2023-08-21T14:12:48;8.05;;;5.38;;
9698;SDS011;10089;47.876;8.346;2023-08-21T14:15:14;6.05;;;4.75;;
9698;SDS011;10089;47.876;8.346;2023-08-21T14:17:39;5.40;;;4.68;;
9698;SDS011;10089;47.876;8.346;2023-08-21T14:20:06;6.22;;;4.82;;
9698;SDS011;10089;47.876;8.346;2023-08-21T14:22:32;9.50;;;5.30;;
9698;SDS011;10089;47.876;8.346;2023-08-21T14:24:58;8.73;;;5.20;;
9698;SDS011;10089;47.876;8.346;2023-08-21T14:27:24;6.13;;;5.22;;
9698;SDS011;10089;47.876;8.346;2023-08-21T14:29:49;8.90;;;5.22;;
9698;SDS011;10089;47.876;8.346;2023-08-21T14:32:15;6.70;;;5.53;;
9698;SDS011;10089;47.876;8.346;2023-08-21T14:34:41;9.00;;;4.93;;
9698;SDS011;10089;47.876;8.346;2023-08-21T14:37:07;7.82;;;5.20;;
9698;SDS011;10089;47.876;8.346;2023-08-21T14:39:32;6.50;;;4.68;;
9698;SDS011;10089;47.876;8.346;2023-08-21T14:41:58;5.97;;;5.15;;
9698;SDS011;10089;47.876;8.346;2023-08-21T14:44:26;7.60;;;4.82;;
9698;SDS011;10089;47.876;8.346;2023-08-21T14:46:52;6.22;;;5.10;;
9698;SDS011;10089;47.876;8.346;2023-08-21T14:49:19;7.63;;;5.40;;
9698;SDS011;10089;47.876;8.346;2023-08-21T14:51:45;9.93;;;5.72;;
9698;SDS011;10089;47.876;8.346;2023-08-21T14:54:10;6.88;;;5.15;;
9698;SDS011;10089;47.876;8.346;2023-08-21T14:56:36;10.52;;;5.25;;
9698;SDS011;10089;47.876;8.346;2023-08-21T14:59:02;7.80;;;5.32;;
9698;SDS011;10089;47.876;8.346;2023-08-21T15:01:29;9.98;;;5.43;;
9698;SDS011;10089;47.876;8.346;2023-08-21T15:03:55;8.75;;;5.85;;
9698;SDS011;10089;47.876;8.346;2023-08-21T15:06:21;7.78;;;5.95;;
9698;SDS011;10089;47.876;8.346;2023-08-21T15:08:47;7.63;;;5.50;;
9698;SDS011;10089;47.876;8.346;2023-08-21T15:11:13;7.50;;;5.47;;
9698;SDS011;10089;47.876;8.346;2023-08-21T15:13:39;13.63;;;5.88;;
9698;SDS011;10089;47.876;8.346;2023-08-21T15:16:05;8.82;;;5.45;;
9698;SDS011;10089;47.876;8.346;2023-08-21T15:18:31;9.38;;;5.20;;
9698;SDS011;10089;47.876;8.346;2023-08-21T15:20:57;7.63;;;5.20;;
9698;SDS011;10089;47.876;8.346;2023-08-21T15:23:23;14.90;;;5.57;;
9698;SDS011;10089;47.876;8.346;2023-08-21T15:25:50;11.63;;;5.32;;
9698;SDS011;10089;47.876;8.346;2023-08-21T15:28:16;7.78;;;5.18;;